sensor_id;sensor_type;location;lat;lon;timestamp;P1;durP1;ratioP1;P2;durP2;ratioP2
30948;SDS011;17637;51.984;21.208;2024-02-26T00:01:54;28.50;;;19.77;;
30948;SDS011;17637;51.984;21.208;2024-02-26T00:04:26;32.45;;;23.08;;
30948;SDS011;17637;51.984;21.208;2024-02-26T00:06:58;33.30;;;22.10;;
30948;SDS011;17637;51.984;21.208;2024-02-26T00:09:30;34.65;;;22.60;;
30948;SDS011;17637;51.984;21.208;2024-02-26T00:12:03;31.17;;;20.65;;
30948;SDS011;17637;51.984;21.208;2024-02-26T00:14:36;31.67;;;21.45;;
30948;SDS011;17637;51.984;21.208;2024-02-26T00:17:08;33.30;;;22.27;;
30948;SDS011;17637;51.984;21.208;2024-02-26T00:19:40;32.63;;;22.60;;
30948;SDS011;17637;51.984;21.208;2024-02-26T00:22:12;31.17;;;20.75;;
30948;SDS011;17637;51.984;21.208;2024-02-26T00:24:44;35.60;;;22.83;;
30948;SDS011;17637;51.984;21.208;2024-02-26T00:27:16;28.15;;;19.45;;
30948;SDS011;17637;51.984;21.208;2024-02-26T00:29:48;30.92;;;20.80;;
30948;SDS011;17637;51.984;21.208;2024-02-26T00:32:20;34.20;;;22.27;;
30948;SDS011;17637;51.984;21.208;2024-02-26T00:34:52;31.52;;;21.38;;
30948;SDS011;17637;51.984;21.208;2024-02-26T00:37:25;32.90;;;22.70;;
30948;SDS011;17637;51.984;21.208;2024-02-26T00:39:57;35.60;;;24.90;;
30948;SDS011;17637;51.984;21.208;2024-02-26T00:42:29;34.03;;;22.92;;
30948;SDS011;17637;51.984;21.208;2024-02-26T00:45:01;30.48;;;20.58;;
30948;SDS011;17637;51.984;21.208;2024-02-26T00:47:33;37.35;;;22.55;;
30948;SDS011;17637;51.984;21.208;2024-02-26T00:50:05;35.10;;;23.95;;
30948;SDS011;17637;51.984;21.208;2024-02-26T00:52:38;34.53;;;23.42;;
30948;SDS011;17637;51.984;21.208;2024-02-26T00:55:10;34.25;;;23.67;;
30948;SDS011;17637;51.984;21.208;2024-02-26T00:57:42;32.13;;;21.30;;
30948;SDS011;17637;51.984;21.208;2024-02-26T01:00:15;31.85;;;22.65;;
30948;SDS011;17637;51.984;21.208;2024-02-26T01:02:47;35.78;;;24.10;;
30948;SDS011;17637;51.984;21.208;2024-02-26T01:05:19;34.70;;;22.52;;
30948;SDS011;17637;51.984;21.208;2024-02-26T01:07:51;39.35;;;24.45;;
30948;SDS011;17637;51.984;21.208;2024-02-26T01:10:23;34.72;;;22.80;;
30948;SDS011;17637;51.984;21.208;2024-02-26T01:12:55;35.58;;;22.45;;
30948;SDS011;17637;51.984;21.208;2024-02-26T01:15:27;39.33;;;26.05;;
30948;SDS011;17637;51.984;21.208;2024-02-26T01:17:59;33.63;;;22.50;;
30948;SDS011;17637;51.984;21.208;2024-02-26T01:20:31;33.20;;;23.05;;
30948;SDS011;17637;51.984;21.208;2024-02-26T01:23:03;36.92;;;23.05;;
30948;SDS011;17637;51.984;21.208;2024-02-26T01:25:35;41.83;;;26.02;;
30948;SDS011;17637;51.984;21.208;2024-02-26T01:28:08;40.00;;;26.13;;
30948;SDS011;17637;51.984;21.208;2024-02-26T01:30:40;32.85;;;22.85;;
30948;SDS011;17637;51.984;21.208;2024-02-26T01:33:12;36.47;;;23.30;;
30948;SDS011;17637;51.984;21.208;2024-02-26T01:35:44;34.22;;;22.55;;
30948;SDS011;17637;51.984;21.208;2024-02-26T01:44:56;33.47;;;22.10;;
30948;SDS011;17637;51.984;21.208;2024-02-26T01:47:28;36.25;;;25.17;;
30948;SDS011;17637;51.984;21.208;2024-02-26T01:50:00;30.23;;;21.13;;
30948;SDS011;17637;51.984;21.208;2024-02-26T01:52:32;37.78;;;24.88;;
30948;SDS011;17637;51.984;21.208;2024-02-26T01:55:04;33.05;;;21.25;;
30948;SDS011;17637;51.984;21.208;2024-02-26T01:57:37;31.77;;;21.73;;
30948;SDS011;17637;51.984;21.208;2024-02-26T02:00:09;33.63;;;22.00;;
30948;SDS011;17637;51.984;21.208;2024-02-26T02:02:41;32.63;;;21.58;;
30948;SDS011;17637;51.984;21.208;2024-02-26T02:05:16;34.63;;;23.40;;
30948;SDS011;17637;51.984;21.208;2024-02-26T02:07:49;35.35;;;21.48;;
30948;SDS011;17637;51.984;21.208;2024-02-26T02:10:22;36.42;;;23.45;;
30948;SDS011;17637;51.984;21.208;2024-02-26T02:12:57;31.92;;;20.65;;
30948;SDS011;17637;51.984;21.208;2024-02-26T02:15:29;35.67;;;22.38;;
30948;SDS011;17637;51.984;21.208;2024-02-26T02:18:01;34.58;;;22.35;;
30948;SDS011;17637;51.984;21.208;2024-02-26T02:20:33;32.00;;;20.83;;
30948;SDS011;17637;51.984;21.208;2024-02-26T02:23:06;40.83;;;25.50;;
30948;SDS011;17637;51.984;21.208;2024-02-26T02:25:38;28.58;;;19.40;;
30948;SDS011;17637;51.984;21.208;2024-02-26T02:28:10;32.13;;;21.13;;
30948;SDS011;17637;51.984;21.208;2024-02-26T02:30:42;30.98;;;20.45;;
30948;SDS011;17637;51.984;21.208;2024-02-26T02:33:14;32.83;;;22.05;;
30948;SDS011;17637;51.984;21.208;2024-02-26T02:35:47;27.45;;;19.77;;
30948;SDS011;17637;51.984;21.208;2024-02-26T02:38:23;33.72;;;21.25;;
30948;SDS011;17637;51.984;21.208;2024-02-26T02:40:55;42.03;;;27.20;;
30948;SDS011;17637;51.984;21.208;2024-02-26T02:43:27;39.90;;;25.98;;
30948;SDS011;17637;51.984;21.208;2024-02-26T02:45:59;42.38;;;26.25;;
30948;SDS011;17637;51.984;21.208;2024-02-26T02:48:31;35.40;;;24.08;;
30948;SDS011;17637;51.984;21.208;2024-02-26T02:51:03;32.80;;;22.13;;
30948;SDS011;17637;51.984;21.208;2024-02-26T02:53:35;32.60;;;22.38;;
30948;SDS011;17637;51.984;21.208;2024-02-26T02:56:07;43.47;;;27.13;;
30948;SDS011;17637;51.984;21.208;2024-02-26T02:58:40;31.55;;;22.67;;
30948;SDS011;17637;51.984;21.208;2024-02-26T03:01:13;37.55;;;25.77;;
30948;SDS011;17637;51.984;21.208;2024-02-26T03:03:45;45.50;;;27.52;;
30948;SDS011;17637;51.984;21.208;2024-02-26T03:06:16;32.50;;;23.02;;
30948;SDS011;17637;51.984;21.208;2024-02-26T03:08:49;43.13;;;26.92;;
30948;SDS011;17637;51.984;21.208;2024-02-26T03:11:21;42.38;;;25.20;;
30948;SDS011;17637;51.984;21.208;2024-02-26T03:13:53;32.38;;;20.75;;
30948;SDS011;17637;51.984;21.208;2024-02-26T03:16:25;40.92;;;24.80;;
30948;SDS011;17637;51.984;21.208;2024-02-26T03:18:57;28.98;;;20.02;;
30948;SDS011;17637;51.984;21.208;2024-02-26T03:21:30;33.13;;;22.70;;
30948;SDS011;17637;51.984;21.208;2024-02-26T03:24:03;43.72;;;28.52;;
30948;SDS011;17637;51.984;21.208;2024-02-26T03:26:36;43.60;;;27.05;;
30948;SDS011;17637;51.984;21.208;2024-02-26T03:29:08;42.03;;;26.27;;
30948;SDS011;17637;51.984;21.208;2024-02-26T03:31:40;41.10;;;25.25;;
30948;SDS011;17637;51.984;21.208;2024-02-26T03:34:12;37.63;;;24.98;;
30948;SDS011;17637;51.984;21.208;2024-02-26T03:36:46;33.92;;;23.08;;
30948;SDS011;17637;51.984;21.208;2024-02-26T03:39:18;38.92;;;23.92;;
30948;SDS011;17637;51.984;21.208;2024-02-26T03:41:50;32.58;;;22.10;;
30948;SDS011;17637;51.984;21.208;2024-02-26T03:44:22;29.33;;;21.42;;
30948;SDS011;17637;51.984;21.208;2024-02-26T03:46:54;34.50;;;24.40;;
30948;SDS011;17637;51.984;21.208;2024-02-26T03:49:25;35.88;;;24.80;;
30948;SDS011;17637;51.984;21.208;2024-02-26T03:51:57;40.17;;;25.83;;
30948;SDS011;17637;51.984;21.208;2024-02-26T03:54:29;35.70;;;24.60;;
30948;SDS011;17637;51.984;21.208;2024-02-26T03:57:01;39.03;;;26.67;;
30948;SDS011;17637;51.984;21.208;2024-02-26T03:59:34;31.90;;;22.23;;
30948;SDS011;17637;51.984;21.208;2024-02-26T04:02:05;40.83;;;25.48;;
30948;SDS011;17637;51.984;21.208;2024-02-26T04:04:37;32.17;;;22.02;;
30948;SDS011;17637;51.984;21.208;2024-02-26T04:07:09;31.55;;;22.70;;
30948;SDS011;17637;51.984;21.208;2024-02-26T04:09:42;31.75;;;21.55;;
30948;SDS011;17637;51.984;21.208;2024-02-26T04:12:14;41.85;;;26.02;;
30948;SDS011;17637;51.984;21.208;2024-02-26T04:14:46;39.30;;;26.17;;
30948;SDS011;17637;51.984;21.208;2024-02-26T04:17:18;45.05;;;29.42;;
30948;SDS011;17637;51.984;21.208;2024-02-26T04:19:50;39.20;;;26.35;;
30948;SDS011;17637;51.984;21.208;2024-02-26T04:22:22;38.60;;;25.13;;
30948;SDS011;17637;51.984;21.208;2024-02-26T04:24:54;38.63;;;24.95;;
30948;SDS011;17637;51.984;21.208;2024-02-26T04:27:26;37.28;;;23.85;;
30948;SDS011;17637;51.984;21.208;2024-02-26T04:29:58;43.40;;;27.42;;
30948;SDS011;17637;51.984;21.208;2024-02-26T04:32:30;45.53;;;27.60;;
30948;SDS011;17637;51.984;21.208;2024-02-26T04:35:02;34.58;;;22.55;;
30948;SDS011;17637;51.984;21.208;2024-02-26T04:37:34;36.92;;;23.60;;
30948;SDS011;17637;51.984;21.208;2024-02-26T04:40:06;58.22;;;29.85;;
30948;SDS011;17637;51.984;21.208;2024-02-26T04:42:39;47.10;;;26.90;;
30948;SDS011;17637;51.984;21.208;2024-02-26T04:45:11;50.08;;;28.92;;
30948;SDS011;17637;51.984;21.208;2024-02-26T04:47:43;42.92;;;26.75;;
30948;SDS011;17637;51.984;21.208;2024-02-26T04:50:15;61.47;;;33.45;;
30948;SDS011;17637;51.984;21.208;2024-02-26T04:52:48;42.95;;;26.73;;
30948;SDS011;17637;51.984;21.208;2024-02-26T04:55:19;64.55;;;30.63;;
30948;SDS011;17637;51.984;21.208;2024-02-26T04:57:51;61.90;;;33.05;;
30948;SDS011;17637;51.984;21.208;2024-02-26T05:00:23;62.47;;;33.63;;
30948;SDS011;17637;51.984;21.208;2024-02-26T05:02:55;83.28;;;41.60;;
30948;SDS011;17637;51.984;21.208;2024-02-26T05:05:27;57.13;;;33.55;;
30948;SDS011;17637;51.984;21.208;2024-02-26T05:07:59;60.78;;;36.28;;
30948;SDS011;17637;51.984;21.208;2024-02-26T05:10:31;78.65;;;38.65;;
30948;SDS011;17637;51.984;21.208;2024-02-26T05:13:03;89.15;;;38.40;;
30948;SDS011;17637;51.984;21.208;2024-02-26T05:15:35;49.63;;;29.95;;
30948;SDS011;17637;51.984;21.208;2024-02-26T05:18:07;51.03;;;30.27;;
30948;SDS011;17637;51.984;21.208;2024-02-26T05:20:40;84.55;;;39.20;;
30948;SDS011;17637;51.984;21.208;2024-02-26T05:23:12;49.00;;;29.92;;
30948;SDS011;17637;51.984;21.208;2024-02-26T05:25:44;54.97;;;31.77;;
30948;SDS011;17637;51.984;21.208;2024-02-26T05:28:18;40.47;;;28.05;;
30948;SDS011;17637;51.984;21.208;2024-02-26T05:30:52;40.13;;;28.95;;
30948;SDS011;17637;51.984;21.208;2024-02-26T05:33:24;43.45;;;28.92;;
30948;SDS011;17637;51.984;21.208;2024-02-26T05:35:56;44.88;;;28.42;;
30948;SDS011;17637;51.984;21.208;2024-02-26T05:38:35;60.83;;;32.97;;
30948;SDS011;17637;51.984;21.208;2024-02-26T05:41:07;52.08;;;31.45;;
30948;SDS011;17637;51.984;21.208;2024-02-26T05:43:39;50.45;;;31.23;;
30948;SDS011;17637;51.984;21.208;2024-02-26T05:46:11;39.40;;;25.13;;
30948;SDS011;17637;51.984;21.208;2024-02-26T05:48:44;48.85;;;31.10;;
30948;SDS011;17637;51.984;21.208;2024-02-26T05:51:16;37.55;;;25.77;;
30948;SDS011;17637;51.984;21.208;2024-02-26T05:53:48;55.33;;;31.77;;
30948;SDS011;17637;51.984;21.208;2024-02-26T05:56:26;42.45;;;29.08;;
30948;SDS011;17637;51.984;21.208;2024-02-26T05:58:58;36.00;;;24.63;;
30948;SDS011;17637;51.984;21.208;2024-02-26T06:01:30;33.47;;;22.65;;
30948;SDS011;17637;51.984;21.208;2024-02-26T06:04:02;34.10;;;23.90;;
30948;SDS011;17637;51.984;21.208;2024-02-26T06:06:34;36.58;;;25.13;;
30948;SDS011;17637;51.984;21.208;2024-02-26T06:09:06;36.40;;;24.52;;
30948;SDS011;17637;51.984;21.208;2024-02-26T06:11:38;29.58;;;20.35;;
30948;SDS011;17637;51.984;21.208;2024-02-26T06:14:10;35.78;;;23.13;;
30948;SDS011;17637;51.984;21.208;2024-02-26T06:16:44;30.08;;;21.58;;
30948;SDS011;17637;51.984;21.208;2024-02-26T06:19:16;28.67;;;21.55;;
30948;SDS011;17637;51.984;21.208;2024-02-26T06:21:48;34.00;;;24.10;;
30948;SDS011;17637;51.984;21.208;2024-02-26T06:24:20;28.98;;;21.30;;
30948;SDS011;17637;51.984;21.208;2024-02-26T06:26:54;35.70;;;24.95;;
30948;SDS011;17637;51.984;21.208;2024-02-26T06:29:26;30.02;;;21.75;;
30948;SDS011;17637;51.984;21.208;2024-02-26T06:31:58;26.02;;;19.50;;
30948;SDS011;17637;51.984;21.208;2024-02-26T06:34:29;28.52;;;20.85;;
30948;SDS011;17637;51.984;21.208;2024-02-26T06:37:02;32.72;;;24.27;;
30948;SDS011;17637;51.984;21.208;2024-02-26T06:39:35;29.25;;;22.13;;
30948;SDS011;17637;51.984;21.208;2024-02-26T06:42:07;31.85;;;22.38;;
30948;SDS011;17637;51.984;21.208;2024-02-26T06:44:39;34.25;;;23.73;;
30948;SDS011;17637;51.984;21.208;2024-02-26T06:47:11;36.00;;;25.10;;
30948;SDS011;17637;51.984;21.208;2024-02-26T06:49:43;38.33;;;27.35;;
30948;SDS011;17637;51.984;21.208;2024-02-26T06:52:15;33.45;;;24.05;;
30948;SDS011;17637;51.984;21.208;2024-02-26T06:54:47;37.88;;;25.80;;
30948;SDS011;17637;51.984;21.208;2024-02-26T06:57:22;28.73;;;21.02;;
30948;SDS011;17637;51.984;21.208;2024-02-26T06:59:55;30.50;;;21.85;;
30948;SDS011;17637;51.984;21.208;2024-02-26T07:02:27;29.48;;;21.95;;
30948;SDS011;17637;51.984;21.208;2024-02-26T07:04:59;27.45;;;20.67;;
30948;SDS011;17637;51.984;21.208;2024-02-26T07:07:32;29.83;;;22.67;;
30948;SDS011;17637;51.984;21.208;2024-02-26T07:10:04;28.83;;;20.48;;
30948;SDS011;17637;51.984;21.208;2024-02-26T07:12:37;30.05;;;22.48;;
30948;SDS011;17637;51.984;21.208;2024-02-26T07:15:10;26.33;;;20.95;;
30948;SDS011;17637;51.984;21.208;2024-02-26T07:17:42;31.63;;;23.48;;
30948;SDS011;17637;51.984;21.208;2024-02-26T07:20:18;32.05;;;22.98;;
30948;SDS011;17637;51.984;21.208;2024-02-26T07:22:50;34.10;;;22.80;;
30948;SDS011;17637;51.984;21.208;2024-02-26T07:25:22;30.60;;;22.70;;
30948;SDS011;17637;51.984;21.208;2024-02-26T07:27:55;29.58;;;21.48;;
30948;SDS011;17637;51.984;21.208;2024-02-26T07:30:27;26.95;;;21.05;;
30948;SDS011;17637;51.984;21.208;2024-02-26T07:32:59;35.78;;;24.77;;
30948;SDS011;17637;51.984;21.208;2024-02-26T07:35:31;27.90;;;21.05;;
30948;SDS011;17637;51.984;21.208;2024-02-26T07:38:05;28.77;;;22.02;;
30948;SDS011;17637;51.984;21.208;2024-02-26T07:40:40;30.67;;;22.48;;
30948;SDS011;17637;51.984;21.208;2024-02-26T07:43:29;26.45;;;20.38;;
30948;SDS011;17637;51.984;21.208;2024-02-26T07:46:01;28.40;;;21.85;;
30948;SDS011;17637;51.984;21.208;2024-02-26T07:48:33;28.05;;;21.95;;
30948;SDS011;17637;51.984;21.208;2024-02-26T07:51:05;25.80;;;20.30;;
30948;SDS011;17637;51.984;21.208;2024-02-26T07:53:37;32.75;;;24.13;;
30948;SDS011;17637;51.984;21.208;2024-02-26T07:56:09;27.20;;;21.70;;
30948;SDS011;17637;51.984;21.208;2024-02-26T07:58:41;24.52;;;20.55;;
30948;SDS011;17637;51.984;21.208;2024-02-26T08:01:13;28.30;;;20.27;;
30948;SDS011;17637;51.984;21.208;2024-02-26T08:03:46;26.48;;;20.50;;
30948;SDS011;17637;51.984;21.208;2024-02-26T08:06:18;26.25;;;20.95;;
30948;SDS011;17637;51.984;21.208;2024-02-26T08:08:50;25.83;;;21.70;;
30948;SDS011;17637;51.984;21.208;2024-02-26T08:11:22;28.15;;;23.73;;
30948;SDS011;17637;51.984;21.208;2024-02-26T08:13:54;26.17;;;21.50;;
30948;SDS011;17637;51.984;21.208;2024-02-26T08:16:26;27.50;;;22.40;;
30948;SDS011;17637;51.984;21.208;2024-02-26T08:18:58;25.83;;;20.63;;
30948;SDS011;17637;51.984;21.208;2024-02-26T08:21:30;27.58;;;23.02;;
30948;SDS011;17637;51.984;21.208;2024-02-26T08:24:02;28.23;;;22.83;;
30948;SDS011;17637;51.984;21.208;2024-02-26T08:26:34;26.05;;;21.00;;
30948;SDS011;17637;51.984;21.208;2024-02-26T08:29:05;29.30;;;23.80;;
30948;SDS011;17637;51.984;21.208;2024-02-26T08:31:37;29.08;;;22.98;;
30948;SDS011;17637;51.984;21.208;2024-02-26T08:34:09;29.80;;;22.88;;
30948;SDS011;17637;51.984;21.208;2024-02-26T08:36:41;31.45;;;23.42;;
30948;SDS011;17637;51.984;21.208;2024-02-26T08:39:15;28.77;;;21.08;;
30948;SDS011;17637;51.984;21.208;2024-02-26T08:41:49;25.40;;;21.65;;
30948;SDS011;17637;51.984;21.208;2024-02-26T08:44:22;26.45;;;22.45;;
30948;SDS011;17637;51.984;21.208;2024-02-26T08:46:54;25.92;;;21.35;;
30948;SDS011;17637;51.984;21.208;2024-02-26T08:49:26;25.17;;;21.80;;
30948;SDS011;17637;51.984;21.208;2024-02-26T08:51:58;21.85;;;19.55;;
30948;SDS011;17637;51.984;21.208;2024-02-26T08:54:30;22.58;;;19.63;;
30948;SDS011;17637;51.984;21.208;2024-02-26T08:57:04;23.25;;;20.00;;
30948;SDS011;17637;51.984;21.208;2024-02-26T08:59:37;22.52;;;20.00;;
30948;SDS011;17637;51.984;21.208;2024-02-26T09:02:09;19.98;;;17.88;;
30948;SDS011;17637;51.984;21.208;2024-02-26T09:04:41;22.75;;;19.30;;
30948;SDS011;17637;51.984;21.208;2024-02-26T09:07:13;22.27;;;19.08;;
30948;SDS011;17637;51.984;21.208;2024-02-26T09:09:45;21.13;;;18.33;;
30948;SDS011;17637;51.984;21.208;2024-02-26T09:12:17;21.27;;;18.58;;
30948;SDS011;17637;51.984;21.208;2024-02-26T09:14:49;19.83;;;17.70;;
30948;SDS011;17637;51.984;21.208;2024-02-26T09:17:21;19.30;;;17.02;;
30948;SDS011;17637;51.984;21.208;2024-02-26T09:19:53;18.45;;;16.55;;
30948;SDS011;17637;51.984;21.208;2024-02-26T09:22:25;18.60;;;16.23;;
30948;SDS011;17637;51.984;21.208;2024-02-26T09:24:57;18.45;;;16.65;;
30948;SDS011;17637;51.984;21.208;2024-02-26T09:27:29;19.60;;;15.30;;
30948;SDS011;17637;51.984;21.208;2024-02-26T09:30:02;17.75;;;14.68;;
30948;SDS011;17637;51.984;21.208;2024-02-26T09:32:34;17.15;;;15.07;;
30948;SDS011;17637;51.984;21.208;2024-02-26T09:35:06;16.38;;;13.82;;
30948;SDS011;17637;51.984;21.208;2024-02-26T09:37:38;15.70;;;14.10;;
30948;SDS011;17637;51.984;21.208;2024-02-26T09:40:10;12.32;;;10.82;;
30948;SDS011;17637;51.984;21.208;2024-02-26T09:42:46;13.65;;;12.30;;
30948;SDS011;17637;51.984;21.208;2024-02-26T09:45:18;13.75;;;12.35;;
30948;SDS011;17637;51.984;21.208;2024-02-26T09:47:52;13.55;;;11.18;;
30948;SDS011;17637;51.984;21.208;2024-02-26T09:50:26;13.65;;;11.30;;
30948;SDS011;17637;51.984;21.208;2024-02-26T09:52:58;13.43;;;11.65;;
30948;SDS011;17637;51.984;21.208;2024-02-26T09:55:34;13.82;;;11.60;;
30948;SDS011;17637;51.984;21.208;2024-02-26T09:58:06;12.43;;;11.07;;
30948;SDS011;17637;51.984;21.208;2024-02-26T10:00:39;13.32;;;11.07;;
30948;SDS011;17637;51.984;21.208;2024-02-26T10:03:13;13.13;;;11.35;;
30948;SDS011;17637;51.984;21.208;2024-02-26T10:05:47;13.77;;;11.23;;
30948;SDS011;17637;51.984;21.208;2024-02-26T10:08:21;15.65;;;10.55;;
30948;SDS011;17637;51.984;21.208;2024-02-26T10:10:54;16.35;;;12.30;;
30948;SDS011;17637;51.984;21.208;2024-02-26T10:13:26;14.80;;;12.25;;
30948;SDS011;17637;51.984;21.208;2024-02-26T10:15:58;9.25;;;8.35;;
30948;SDS011;17637;51.984;21.208;2024-02-26T10:18:48;14.05;;;11.55;;
30948;SDS011;17637;51.984;21.208;2024-02-26T10:21:30;8.75;;;7.80;;
30948;SDS011;17637;51.984;21.208;2024-02-26T10:24:02;8.73;;;7.03;;
30948;SDS011;17637;51.984;21.208;2024-02-26T10:26:34;9.05;;;6.97;;
30948;SDS011;17637;51.984;21.208;2024-02-26T10:29:06;8.18;;;7.38;;
30948;SDS011;17637;51.984;21.208;2024-02-26T10:31:42;10.93;;;7.88;;
30948;SDS011;17637;51.984;21.208;2024-02-26T10:34:17;10.38;;;8.88;;
30948;SDS011;17637;51.984;21.208;2024-02-26T10:36:49;10.50;;;8.63;;
30948;SDS011;17637;51.984;21.208;2024-02-26T10:39:24;11.30;;;8.55;;
30948;SDS011;17637;51.984;21.208;2024-02-26T10:41:56;10.95;;;8.07;;
30948;SDS011;17637;51.984;21.208;2024-02-26T10:44:28;9.35;;;7.47;;
30948;SDS011;17637;51.984;21.208;2024-02-26T10:47:00;7.25;;;5.88;;
30948;SDS011;17637;51.984;21.208;2024-02-26T10:49:32;7.20;;;6.50;;
30948;SDS011;17637;51.984;21.208;2024-02-26T10:52:07;6.53;;;5.65;;
30948;SDS011;17637;51.984;21.208;2024-02-26T10:54:41;6.00;;;5.40;;
30948;SDS011;17637;51.984;21.208;2024-02-26T10:57:16;7.07;;;6.10;;
30948;SDS011;17637;51.984;21.208;2024-02-26T10:59:51;6.85;;;5.97;;
30948;SDS011;17637;51.984;21.208;2024-02-26T11:02:25;6.30;;;5.60;;
30948;SDS011;17637;51.984;21.208;2024-02-26T11:04:58;6.07;;;5.47;;
30948;SDS011;17637;51.984;21.208;2024-02-26T11:07:31;6.95;;;5.65;;
30948;SDS011;17637;51.984;21.208;2024-02-26T11:10:05;5.30;;;4.80;;
30948;SDS011;17637;51.984;21.208;2024-02-26T11:12:38;5.95;;;5.35;;
30948;SDS011;17637;51.984;21.208;2024-02-26T11:15:11;6.55;;;5.15;;
30948;SDS011;17637;51.984;21.208;2024-02-26T11:17:44;4.72;;;4.22;;
30948;SDS011;17637;51.984;21.208;2024-02-26T11:20:17;4.82;;;4.15;;
30948;SDS011;17637;51.984;21.208;2024-02-26T11:22:51;5.57;;;4.47;;
30948;SDS011;17637;51.984;21.208;2024-02-26T11:25:23;8.15;;;4.55;;
30948;SDS011;17637;51.984;21.208;2024-02-26T11:27:56;4.40;;;4.00;;
30948;SDS011;17637;51.984;21.208;2024-02-26T11:30:34;4.57;;;3.88;;
30948;SDS011;17637;51.984;21.208;2024-02-26T11:33:10;5.05;;;3.80;;
30948;SDS011;17637;51.984;21.208;2024-02-26T11:35:44;4.53;;;4.13;;
30948;SDS011;17637;51.984;21.208;2024-02-26T11:38:20;4.40;;;4.00;;
30948;SDS011;17637;51.984;21.208;2024-02-26T11:40:53;4.65;;;3.85;;
30948;SDS011;17637;51.984;21.208;2024-02-26T11:46:32;6.95;;;5.10;;
30948;SDS011;17637;51.984;21.208;2024-02-26T11:51:56;4.75;;;3.72;;
30948;SDS011;17637;51.984;21.208;2024-02-26T12:00:15;6.38;;;4.15;;
30948;SDS011;17637;51.984;21.208;2024-02-26T12:02:49;5.22;;;4.30;;
30948;SDS011;17637;51.984;21.208;2024-02-26T12:05:42;4.88;;;3.75;;
30948;SDS011;17637;51.984;21.208;2024-02-26T12:08:15;5.20;;;3.50;;
30948;SDS011;17637;51.984;21.208;2024-02-26T12:10:49;4.28;;;3.85;;
30948;SDS011;17637;51.984;21.208;2024-02-26T12:13:21;4.38;;;3.90;;
30948;SDS011;17637;51.984;21.208;2024-02-26T12:16:02;5.20;;;3.78;;
30948;SDS011;17637;51.984;21.208;2024-02-26T12:18:34;3.78;;;3.17;;
30948;SDS011;17637;51.984;21.208;2024-02-26T12:21:06;6.82;;;3.80;;
30948;SDS011;17637;51.984;21.208;2024-02-26T12:23:38;3.65;;;3.17;;
30948;SDS011;17637;51.984;21.208;2024-02-26T12:26:10;4.32;;;3.85;;
30948;SDS011;17637;51.984;21.208;2024-02-26T12:28:44;6.07;;;3.92;;
30948;SDS011;17637;51.984;21.208;2024-02-26T12:31:18;4.70;;;3.20;;
30948;SDS011;17637;51.984;21.208;2024-02-26T12:33:50;7.32;;;5.72;;
30948;SDS011;17637;51.984;21.208;2024-02-26T12:36:22;35.22;;;23.60;;
30948;SDS011;17637;51.984;21.208;2024-02-26T12:38:57;39.60;;;23.90;;
30948;SDS011;17637;51.984;21.208;2024-02-26T12:41:29;13.18;;;8.15;;
30948;SDS011;17637;51.984;21.208;2024-02-26T12:44:01;8.73;;;5.65;;
30948;SDS011;17637;51.984;21.208;2024-02-26T12:46:33;8.77;;;4.80;;
30948;SDS011;17637;51.984;21.208;2024-02-26T12:49:05;5.60;;;4.60;;
30948;SDS011;17637;51.984;21.208;2024-02-26T12:51:38;7.43;;;5.25;;
30948;SDS011;17637;51.984;21.208;2024-02-26T12:54:10;6.40;;;4.95;;
30948;SDS011;17637;51.984;21.208;2024-02-26T12:56:42;10.18;;;6.68;;
30948;SDS011;17637;51.984;21.208;2024-02-26T12:59:14;12.88;;;6.95;;
30948;SDS011;17637;51.984;21.208;2024-02-26T13:01:46;12.32;;;7.20;;
30948;SDS011;17637;51.984;21.208;2024-02-26T13:04:18;11.45;;;7.05;;
30948;SDS011;17637;51.984;21.208;2024-02-26T13:06:51;5.82;;;4.60;;
30948;SDS011;17637;51.984;21.208;2024-02-26T13:09:23;5.35;;;4.63;;
30948;SDS011;17637;51.984;21.208;2024-02-26T13:11:55;5.18;;;3.83;;
30948;SDS011;17637;51.984;21.208;2024-02-26T13:14:27;6.00;;;4.32;;
30948;SDS011;17637;51.984;21.208;2024-02-26T13:17:00;4.70;;;3.95;;
30948;SDS011;17637;51.984;21.208;2024-02-26T13:19:32;5.20;;;4.70;;
30948;SDS011;17637;51.984;21.208;2024-02-26T13:22:05;5.05;;;4.10;;
30948;SDS011;17637;51.984;21.208;2024-02-26T13:24:38;7.10;;;4.68;;
30948;SDS011;17637;51.984;21.208;2024-02-26T13:27:10;5.55;;;4.43;;
30948;SDS011;17637;51.984;21.208;2024-02-26T13:29:42;8.48;;;7.00;;
30948;SDS011;17637;51.984;21.208;2024-02-26T13:32:14;9.68;;;5.60;;
30948;SDS011;17637;51.984;21.208;2024-02-26T13:34:46;7.97;;;6.75;;
30948;SDS011;17637;51.984;21.208;2024-02-26T13:37:18;8.52;;;5.43;;
30948;SDS011;17637;51.984;21.208;2024-02-26T13:39:50;6.05;;;4.95;;
30948;SDS011;17637;51.984;21.208;2024-02-26T13:42:22;9.18;;;5.70;;
30948;SDS011;17637;51.984;21.208;2024-02-26T13:44:54;6.30;;;4.80;;
30948;SDS011;17637;51.984;21.208;2024-02-26T13:47:26;5.68;;;4.43;;
30948;SDS011;17637;51.984;21.208;2024-02-26T13:49:58;7.95;;;3.97;;
30948;SDS011;17637;51.984;21.208;2024-02-26T13:52:30;7.50;;;6.15;;
30948;SDS011;17637;51.984;21.208;2024-02-26T13:55:04;7.72;;;5.97;;
30948;SDS011;17637;51.984;21.208;2024-02-26T13:57:36;6.60;;;5.10;;
30948;SDS011;17637;51.984;21.208;2024-02-26T14:00:09;4.80;;;4.30;;
30948;SDS011;17637;51.984;21.208;2024-02-26T14:02:41;4.80;;;4.25;;
30948;SDS011;17637;51.984;21.208;2024-02-26T14:05:13;4.10;;;3.70;;
30948;SDS011;17637;51.984;21.208;2024-02-26T14:07:45;8.20;;;4.40;;
30948;SDS011;17637;51.984;21.208;2024-02-26T14:10:22;4.88;;;3.65;;
30948;SDS011;17637;51.984;21.208;2024-02-26T14:12:54;5.43;;;3.30;;
30948;SDS011;17637;51.984;21.208;2024-02-26T14:15:26;6.05;;;3.65;;
30948;SDS011;17637;51.984;21.208;2024-02-26T14:17:58;3.95;;;3.10;;
30948;SDS011;17637;51.984;21.208;2024-02-26T14:20:30;5.03;;;3.75;;
30948;SDS011;17637;51.984;21.208;2024-02-26T14:23:02;4.43;;;3.85;;
30948;SDS011;17637;51.984;21.208;2024-02-26T14:25:34;4.25;;;3.80;;
30948;SDS011;17637;51.984;21.208;2024-02-26T14:28:06;9.00;;;4.35;;
30948;SDS011;17637;51.984;21.208;2024-02-26T14:30:41;6.07;;;5.07;;
30948;SDS011;17637;51.984;21.208;2024-02-26T14:33:13;4.72;;;4.22;;
30948;SDS011;17637;51.984;21.208;2024-02-26T14:35:45;6.38;;;4.03;;
30948;SDS011;17637;51.984;21.208;2024-02-26T14:38:17;5.88;;;4.35;;
30948;SDS011;17637;51.984;21.208;2024-02-26T14:40:48;4.97;;;4.00;;
30948;SDS011;17637;51.984;21.208;2024-02-26T14:43:20;5.50;;;4.15;;
30948;SDS011;17637;51.984;21.208;2024-02-26T14:45:52;8.30;;;4.80;;
30948;SDS011;17637;51.984;21.208;2024-02-26T14:48:24;6.38;;;5.35;;
30948;SDS011;17637;51.984;21.208;2024-02-26T14:50:57;7.45;;;5.55;;
30948;SDS011;17637;51.984;21.208;2024-02-26T14:53:30;10.27;;;5.72;;
30948;SDS011;17637;51.984;21.208;2024-02-26T14:56:03;8.05;;;6.80;;
30948;SDS011;17637;51.984;21.208;2024-02-26T14:58:35;11.00;;;7.82;;
30948;SDS011;17637;51.984;21.208;2024-02-26T15:01:07;9.77;;;6.28;;
30948;SDS011;17637;51.984;21.208;2024-02-26T15:03:39;10.20;;;7.05;;
30948;SDS011;17637;51.984;21.208;2024-02-26T15:06:11;8.80;;;7.03;;